sensor_id;sensor_type;location;lat;lon;timestamp;P1;durP1;ratioP1;P2;durP2;ratioP2
29422;SDS011;16399;51.686;8.684;2022-07-23T00:02:23;13.93;;;6.25;;
29422;SDS011;16399;51.686;8.684;2022-07-23T00:05:25;12.40;;;6.22;;
29422;SDS011;16399;51.686;8.684;2022-07-23T00:08:28;13.03;;;6.83;;
29422;SDS011;16399;51.686;8.684;2022-07-23T00:11:30;15.10;;;6.62;;
29422;SDS011;16399;51.686;8.684;2022-07-23T00:14:32;12.13;;;5.95;;
29422;SDS011;16399;51.686;8.684;2022-07-23T00:17:35;14.10;;;6.28;;
29422;SDS011;16399;51.686;8.684;2022-07-23T00:20:37;11.12;;;6.22;;
29422;SDS011;16399;51.686;8.684;2022-07-23T00:23:39;12.28;;;7.08;;
29422;SDS011;16399;51.686;8.684;2022-07-23T00:26:41;12.13;;;6.75;;
29422;SDS011;16399;51.686;8.684;2022-07-23T00:29:44;11.45;;;6.83;;
29422;SDS011;16399;51.686;8.684;2022-07-23T00:35:51;10.60;;;6.62;;
29422;SDS011;16399;51.686;8.684;2022-07-23T00:38:54;12.90;;;6.60;;
29422;SDS011;16399;51.686;8.684;2022-07-23T00:41:57;11.18;;;6.50;;
29422;SDS011;16399;51.686;8.684;2022-07-23T00:44:59;13.80;;;6.35;;
29422;SDS011;16399;51.686;8.684;2022-07-23T00:48:01;16.48;;;6.87;;
29422;SDS011;16399;51.686;8.684;2022-07-23T00:51:04;10.20;;;6.37;;
29422;SDS011;16399;51.686;8.684;2022-07-23T00:54:06;14.07;;;6.72;;
29422;SDS011;16399;51.686;8.684;2022-07-23T00:57:08;14.15;;;6.62;;
29422;SDS011;16399;51.686;8.684;2022-07-23T01:00:12;10.40;;;5.35;;
29422;SDS011;16399;51.686;8.684;2022-07-23T01:03:15;16.90;;;7.30;;
29422;SDS011;16399;51.686;8.684;2022-07-23T01:06:18;16.62;;;6.45;;
29422;SDS011;16399;51.686;8.684;2022-07-23T01:09:20;15.90;;;6.40;;
29422;SDS011;16399;51.686;8.684;2022-07-23T01:12:22;13.18;;;6.45;;
29422;SDS011;16399;51.686;8.684;2022-07-23T01:15:25;15.43;;;6.92;;
29422;SDS011;16399;51.686;8.684;2022-07-23T01:18:28;12.70;;;6.72;;
29422;SDS011;16399;51.686;8.684;2022-07-23T01:21:30;12.43;;;6.60;;
29422;SDS011;16399;51.686;8.684;2022-07-23T01:24:33;16.87;;;6.75;;
29422;SDS011;16399;51.686;8.684;2022-07-23T01:27:35;13.15;;;7.00;;
29422;SDS011;16399;51.686;8.684;2022-07-23T01:30:37;10.85;;;6.33;;
29422;SDS011;16399;51.686;8.684;2022-07-23T01:33:39;13.20;;;6.55;;
29422;SDS011;16399;51.686;8.684;2022-07-23T01:36:42;13.48;;;6.53;;
29422;SDS011;16399;51.686;8.684;2022-07-23T01:39:45;11.88;;;7.22;;
29422;SDS011;16399;51.686;8.684;2022-07-23T01:42:47;13.40;;;6.85;;
29422;SDS011;16399;51.686;8.684;2022-07-23T01:45:49;17.07;;;6.42;;
29422;SDS011;16399;51.686;8.684;2022-07-23T01:48:51;10.93;;;6.70;;
29422;SDS011;16399;51.686;8.684;2022-07-23T01:51:54;14.05;;;7.17;;
29422;SDS011;16399;51.686;8.684;2022-07-23T01:55:02;12.25;;;7.10;;
29422;SDS011;16399;51.686;8.684;2022-07-23T01:58:06;13.13;;;7.00;;
29422;SDS011;16399;51.686;8.684;2022-07-23T02:01:08;11.33;;;7.22;;
29422;SDS011;16399;51.686;8.684;2022-07-23T02:04:10;11.00;;;7.05;;
29422;SDS011;16399;51.686;8.684;2022-07-23T02:07:13;12.73;;;7.50;;
29422;SDS011;16399;51.686;8.684;2022-07-23T02:10:15;14.25;;;7.10;;
29422;SDS011;16399;51.686;8.684;2022-07-23T02:13:17;11.65;;;6.85;;
29422;SDS011;16399;51.686;8.684;2022-07-23T02:16:20;11.40;;;6.60;;
29422;SDS011;16399;51.686;8.684;2022-07-23T02:19:22;16.45;;;6.97;;
29422;SDS011;16399;51.686;8.684;2022-07-23T02:22:24;11.60;;;6.65;;
29422;SDS011;16399;51.686;8.684;2022-07-23T02:25:26;14.35;;;7.33;;
29422;SDS011;16399;51.686;8.684;2022-07-23T02:28:29;13.75;;;7.55;;
29422;SDS011;16399;51.686;8.684;2022-07-23T02:31:31;15.00;;;7.22;;
29422;SDS011;16399;51.686;8.684;2022-07-23T02:34:34;12.10;;;7.12;;
29422;SDS011;16399;51.686;8.684;2022-07-23T02:37:36;18.52;;;6.37;;
29422;SDS011;16399;51.686;8.684;2022-07-23T02:40:38;13.30;;;6.95;;
29422;SDS011;16399;51.686;8.684;2022-07-23T02:43:41;11.70;;;7.03;;
29422;SDS011;16399;51.686;8.684;2022-07-23T02:46:43;13.93;;;7.78;;
29422;SDS011;16399;51.686;8.684;2022-07-23T02:49:45;11.97;;;7.17;;
29422;SDS011;16399;51.686;8.684;2022-07-23T02:52:48;14.47;;;7.87;;
29422;SDS011;16399;51.686;8.684;2022-07-23T02:55:50;14.75;;;7.78;;
29422;SDS011;16399;51.686;8.684;2022-07-23T02:58:52;14.68;;;8.50;;
29422;SDS011;16399;51.686;8.684;2022-07-23T03:01:55;12.88;;;8.23;;
29422;SDS011;16399;51.686;8.684;2022-07-23T03:04:57;13.62;;;7.70;;
29422;SDS011;16399;51.686;8.684;2022-07-23T03:07:59;14.53;;;7.85;;
29422;SDS011;16399;51.686;8.684;2022-07-23T03:11:02;14.38;;;7.83;;
29422;SDS011;16399;51.686;8.684;2022-07-23T03:14:04;11.68;;;7.40;;
29422;SDS011;16399;51.686;8.684;2022-07-23T03:17:08;15.25;;;8.08;;
29422;SDS011;16399;51.686;8.684;2022-07-23T03:20:10;16.00;;;8.23;;
29422;SDS011;16399;51.686;8.684;2022-07-23T03:23:13;11.53;;;7.75;;
29422;SDS011;16399;51.686;8.684;2022-07-23T03:26:15;15.35;;;8.08;;
29422;SDS011;16399;51.686;8.684;2022-07-23T03:29:17;14.53;;;7.78;;
29422;SDS011;16399;51.686;8.684;2022-07-23T03:32:20;13.45;;;8.10;;
29422;SDS011;16399;51.686;8.684;2022-07-23T03:35:23;15.32;;;8.03;;
29422;SDS011;16399;51.686;8.684;2022-07-23T03:38:25;13.50;;;7.53;;
29422;SDS011;16399;51.686;8.684;2022-07-23T03:41:27;16.07;;;7.87;;
29422;SDS011;16399;51.686;8.684;2022-07-23T03:44:30;13.98;;;8.40;;
29422;SDS011;16399;51.686;8.684;2022-07-23T03:47:32;17.40;;;8.58;;
29422;SDS011;16399;51.686;8.684;2022-07-23T03:50:34;15.20;;;7.72;;
29422;SDS011;16399;51.686;8.684;2022-07-23T03:53:37;12.07;;;7.42;;
29422;SDS011;16399;51.686;8.684;2022-07-23T03:56:40;13.88;;;7.22;;
29422;SDS011;16399;51.686;8.684;2022-07-23T03:59:43;13.13;;;7.65;;
29422;SDS011;16399;51.686;8.684;2022-07-23T04:02:45;14.90;;;7.35;;
29422;SDS011;16399;51.686;8.684;2022-07-23T04:05:47;13.85;;;8.03;;
29422;SDS011;16399;51.686;8.684;2022-07-23T04:08:50;16.40;;;7.97;;
29422;SDS011;16399;51.686;8.684;2022-07-23T04:11:52;17.00;;;7.85;;
29422;SDS011;16399;51.686;8.684;2022-07-23T04:14:54;14.43;;;7.70;;
29422;SDS011;16399;51.686;8.684;2022-07-23T04:17:57;11.60;;;7.37;;
29422;SDS011;16399;51.686;8.684;2022-07-23T04:20:59;12.18;;;7.65;;
29422;SDS011;16399;51.686;8.684;2022-07-23T04:24:02;14.47;;;8.55;;
29422;SDS011;16399;51.686;8.684;2022-07-23T04:27:04;11.57;;;7.67;;
29422;SDS011;16399;51.686;8.684;2022-07-23T04:30:08;11.08;;;6.75;;
29422;SDS011;16399;51.686;8.684;2022-07-23T04:33:10;10.70;;;6.50;;
29422;SDS011;16399;51.686;8.684;2022-07-23T04:36:12;12.18;;;7.87;;
29422;SDS011;16399;51.686;8.684;2022-07-23T04:39:15;13.38;;;7.53;;
29422;SDS011;16399;51.686;8.684;2022-07-23T04:42:17;11.28;;;7.80;;
29422;SDS011;16399;51.686;8.684;2022-07-23T04:45:19;14.10;;;7.62;;
29422;SDS011;16399;51.686;8.684;2022-07-23T04:48:22;12.13;;;7.55;;
29422;SDS011;16399;51.686;8.684;2022-07-23T04:51:24;15.25;;;7.85;;
29422;SDS011;16399;51.686;8.684;2022-07-23T04:54:26;13.78;;;7.37;;
29422;SDS011;16399;51.686;8.684;2022-07-23T04:57:28;11.30;;;6.85;;
29422;SDS011;16399;51.686;8.684;2022-07-23T05:00:31;11.65;;;7.20;;
29422;SDS011;16399;51.686;8.684;2022-07-23T05:03:33;12.25;;;7.25;;
29422;SDS011;16399;51.686;8.684;2022-07-23T05:06:35;10.75;;;6.53;;
29422;SDS011;16399;51.686;8.684;2022-07-23T05:09:38;10.72;;;6.30;;
29422;SDS011;16399;51.686;8.684;2022-07-23T05:12:40;9.05;;;6.12;;
29422;SDS011;16399;51.686;8.684;2022-07-23T05:15:42;13.65;;;6.10;;
29422;SDS011;16399;51.686;8.684;2022-07-23T05:18:45;9.55;;;6.20;;
29422;SDS011;16399;51.686;8.684;2022-07-23T05:21:48;10.63;;;7.12;;
29422;SDS011;16399;51.686;8.684;2022-07-23T05:24:50;9.58;;;5.95;;
29422;SDS011;16399;51.686;8.684;2022-07-23T05:27:52;10.65;;;6.62;;
29422;SDS011;16399;51.686;8.684;2022-07-23T05:30:55;12.53;;;7.30;;
29422;SDS011;16399;51.686;8.684;2022-07-23T05:33:57;13.30;;;7.22;;
29422;SDS011;16399;51.686;8.684;2022-07-23T05:36:59;11.18;;;6.95;;
29422;SDS011;16399;51.686;8.684;2022-07-23T05:40:07;12.28;;;7.25;;
29422;SDS011;16399;51.686;8.684;2022-07-23T05:43:08;11.83;;;7.58;;
29422;SDS011;16399;51.686;8.684;2022-07-23T05:46:10;12.58;;;7.03;;
29422;SDS011;16399;51.686;8.684;2022-07-23T05:49:12;13.15;;;7.53;;
29422;SDS011;16399;51.686;8.684;2022-07-23T05:52:15;12.43;;;7.53;;
29422;SDS011;16399;51.686;8.684;2022-07-23T05:55:17;13.80;;;9.00;;
29422;SDS011;16399;51.686;8.684;2022-07-23T05:58:19;13.72;;;8.45;;
29422;SDS011;16399;51.686;8.684;2022-07-23T06:01:21;14.33;;;8.83;;
29422;SDS011;16399;51.686;8.684;2022-07-23T06:04:24;15.23;;;8.50;;
29422;SDS011;16399;51.686;8.684;2022-07-23T06:07:26;10.88;;;7.75;;
29422;SDS011;16399;51.686;8.684;2022-07-23T06:10:28;12.63;;;7.70;;
29422;SDS011;16399;51.686;8.684;2022-07-23T06:13:31;13.88;;;8.73;;
29422;SDS011;16399;51.686;8.684;2022-07-23T06:16:33;14.45;;;8.80;;
29422;SDS011;16399;51.686;8.684;2022-07-23T06:19:35;14.98;;;8.05;;
29422;SDS011;16399;51.686;8.684;2022-07-23T06:22:38;14.38;;;8.73;;
29422;SDS011;16399;51.686;8.684;2022-07-23T06:25:40;13.35;;;9.05;;
29422;SDS011;16399;51.686;8.684;2022-07-23T06:28:42;12.07;;;8.58;;
29422;SDS011;16399;51.686;8.684;2022-07-23T06:31:44;13.50;;;8.65;;
29422;SDS011;16399;51.686;8.684;2022-07-23T06:34:47;16.48;;;8.75;;
29422;SDS011;16399;51.686;8.684;2022-07-23T06:37:49;12.55;;;8.75;;
29422;SDS011;16399;51.686;8.684;2022-07-23T06:40:51;11.22;;;7.65;;
29422;SDS011;16399;51.686;8.684;2022-07-23T06:43:54;13.40;;;8.28;;
29422;SDS011;16399;51.686;8.684;2022-07-23T06:46:56;12.10;;;8.10;;
29422;SDS011;16399;51.686;8.684;2022-07-23T06:49:58;16.50;;;8.33;;
29422;SDS011;16399;51.686;8.684;2022-07-23T06:53:01;11.25;;;8.33;;
29422;SDS011;16399;51.686;8.684;2022-07-23T06:56:03;13.35;;;8.88;;
29422;SDS011;16399;51.686;8.684;2022-07-23T06:59:05;11.53;;;7.62;;
29422;SDS011;16399;51.686;8.684;2022-07-23T07:02:09;13.60;;;8.03;;
29422;SDS011;16399;51.686;8.684;2022-07-23T07:05:11;16.23;;;9.18;;
29422;SDS011;16399;51.686;8.684;2022-07-23T07:08:14;16.15;;;8.75;;
29422;SDS011;16399;51.686;8.684;2022-07-23T07:11:16;13.70;;;8.20;;
29422;SDS011;16399;51.686;8.684;2022-07-23T07:14:18;11.70;;;6.92;;
29422;SDS011;16399;51.686;8.684;2022-07-23T07:17:21;13.15;;;7.92;;
29422;SDS011;16399;51.686;8.684;2022-07-23T07:20:23;12.78;;;8.33;;
29422;SDS011;16399;51.686;8.684;2022-07-23T07:23:25;14.75;;;8.25;;
29422;SDS011;16399;51.686;8.684;2022-07-23T07:26:28;14.75;;;7.67;;
29422;SDS011;16399;51.686;8.684;2022-07-23T07:29:31;13.70;;;7.90;;
29422;SDS011;16399;51.686;8.684;2022-07-23T07:32:33;12.25;;;8.40;;
29422;SDS011;16399;51.686;8.684;2022-07-23T07:35:37;15.28;;;8.10;;
29422;SDS011;16399;51.686;8.684;2022-07-23T07:38:39;11.30;;;7.15;;
29422;SDS011;16399;51.686;8.684;2022-07-23T07:41:41;13.08;;;7.87;;
29422;SDS011;16399;51.686;8.684;2022-07-23T07:44:44;16.27;;;8.35;;
29422;SDS011;16399;51.686;8.684;2022-07-23T07:47:46;13.95;;;7.55;;
29422;SDS011;16399;51.686;8.684;2022-07-23T07:50:49;15.03;;;8.43;;
29422;SDS011;16399;51.686;8.684;2022-07-23T07:53:51;16.85;;;8.60;;
29422;SDS011;16399;51.686;8.684;2022-07-23T07:56:53;12.98;;;8.03;;
29422;SDS011;16399;51.686;8.684;2022-07-23T07:59:55;13.00;;;7.80;;
29422;SDS011;16399;51.686;8.684;2022-07-23T08:02:58;13.25;;;7.70;;
29422;SDS011;16399;51.686;8.684;2022-07-23T08:06:00;15.00;;;8.60;;
29422;SDS011;16399;51.686;8.684;2022-07-23T08:09:03;14.58;;;7.22;;
29422;SDS011;16399;51.686;8.684;2022-07-23T08:12:05;12.85;;;6.50;;
29422;SDS011;16399;51.686;8.684;2022-07-23T08:15:08;11.18;;;6.08;;
29422;SDS011;16399;51.686;8.684;2022-07-23T08:18:10;8.35;;;5.35;;
29422;SDS011;16399;51.686;8.684;2022-07-23T08:21:13;14.93;;;7.03;;
29422;SDS011;16399;51.686;8.684;2022-07-23T08:24:15;9.10;;;5.72;;
29422;SDS011;16399;51.686;8.684;2022-07-23T08:27:17;11.22;;;5.95;;
29422;SDS011;16399;51.686;8.684;2022-07-23T08:30:19;10.68;;;6.20;;
29422;SDS011;16399;51.686;8.684;2022-07-23T08:33:22;10.00;;;5.87;;
29422;SDS011;16399;51.686;8.684;2022-07-23T08:36:24;10.45;;;5.87;;
29422;SDS011;16399;51.686;8.684;2022-07-23T08:39:28;10.95;;;5.42;;
29422;SDS011;16399;51.686;8.684;2022-07-23T08:42:31;11.30;;;5.30;;
29422;SDS011;16399;51.686;8.684;2022-07-23T08:45:41;9.23;;;5.47;;
29422;SDS011;16399;51.686;8.684;2022-07-23T08:48:44;8.78;;;5.55;;
29422;SDS011;16399;51.686;8.684;2022-07-23T08:51:49;9.48;;;4.90;;
29422;SDS011;16399;51.686;8.684;2022-07-23T08:54:52;11.38;;;5.45;;
29422;SDS011;16399;51.686;8.684;2022-07-23T08:57:56;11.40;;;5.85;;
29422;SDS011;16399;51.686;8.684;2022-07-23T09:00:59;8.08;;;5.65;;
29422;SDS011;16399;51.686;8.684;2022-07-23T09:04:02;10.00;;;5.57;;
29422;SDS011;16399;51.686;8.684;2022-07-23T09:07:04;7.78;;;4.20;;
29422;SDS011;16399;51.686;8.684;2022-07-23T09:10:11;10.90;;;5.17;;
29422;SDS011;16399;51.686;8.684;2022-07-23T09:13:31;9.40;;;4.42;;
29422;SDS011;16399;51.686;8.684;2022-07-23T09:16:35;9.60;;;4.53;;
29422;SDS011;16399;51.686;8.684;2022-07-23T09:19:37;7.30;;;4.30;;
29422;SDS011;16399;51.686;8.684;2022-07-23T09:22:49;7.80;;;4.58;;
29422;SDS011;16399;51.686;8.684;2022-07-23T09:25:47;8.38;;;5.05;;
29422;SDS011;16399;51.686;8.684;2022-07-23T09:29:09;10.72;;;5.22;;
29422;SDS011;16399;51.686;8.684;2022-07-23T09:32:01;8.58;;;4.80;;
29422;SDS011;16399;51.686;8.684;2022-07-23T09:35:05;9.23;;;5.05;;
29422;SDS011;16399;51.686;8.684;2022-07-23T09:38:08;9.35;;;4.83;;
29422;SDS011;16399;51.686;8.684;2022-07-23T09:41:11;8.18;;;5.22;;
29422;SDS011;16399;51.686;8.684;2022-07-23T09:44:15;9.95;;;4.90;;
29422;SDS011;16399;51.686;8.684;2022-07-23T09:47:19;7.05;;;4.47;;
29422;SDS011;16399;51.686;8.684;2022-07-23T09:50:22;8.60;;;4.63;;
29422;SDS011;16399;51.686;8.684;2022-07-23T09:53:24;8.80;;;4.20;;
29422;SDS011;16399;51.686;8.684;2022-07-23T09:56:27;6.70;;;4.25;;
29422;SDS011;16399;51.686;8.684;2022-07-23T09:59:31;10.05;;;3.87;;
29422;SDS011;16399;51.686;8.684;2022-07-23T10:02:36;6.42;;;4.65;;
29422;SDS011;16399;51.686;8.684;2022-07-23T10:05:38;9.13;;;5.00;;
29422;SDS011;16399;51.686;8.684;2022-07-23T10:08:44;8.65;;;5.15;;
29422;SDS011;16399;51.686;8.684;2022-07-23T10:11:49;7.65;;;4.90;;
29422;SDS011;16399;51.686;8.684;2022-07-23T10:17:56;11.30;;;4.78;;
29422;SDS011;16399;51.686;8.684;2022-07-23T10:20:59;10.85;;;5.00;;
29422;SDS011;16399;51.686;8.684;2022-07-23T10:27:23;7.28;;;5.45;;
29422;SDS011;16399;51.686;8.684;2022-07-23T10:37:12;7.20;;;4.60;;
29422;SDS011;16399;51.686;8.684;2022-07-23T10:40:22;7.00;;;4.55;;
29422;SDS011;16399;51.686;8.684;2022-07-23T10:43:24;8.05;;;4.67;;
29422;SDS011;16399;51.686;8.684;2022-07-23T10:46:27;8.53;;;5.35;;
29422;SDS011;16399;51.686;8.684;2022-07-23T10:49:33;7.40;;;5.30;;
29422;SDS011;16399;51.686;8.684;2022-07-23T10:52:36;13.72;;;6.15;;
29422;SDS011;16399;51.686;8.684;2022-07-23T10:55:39;11.68;;;6.10;;
29422;SDS011;16399;51.686;8.684;2022-07-23T11:01:49;10.05;;;4.92;;
29422;SDS011;16399;51.686;8.684;2022-07-23T11:04:52;9.30;;;5.72;;
29422;SDS011;16399;51.686;8.684;2022-07-23T11:11:10;8.98;;;5.92;;
29422;SDS011;16399;51.686;8.684;2022-07-23T11:14:13;11.60;;;6.47;;
29422;SDS011;16399;51.686;8.684;2022-07-23T11:17:19;7.55;;;5.20;;
29422;SDS011;16399;51.686;8.684;2022-07-23T11:20:22;7.70;;;5.55;;
29422;SDS011;16399;51.686;8.684;2022-07-23T11:23:28;6.42;;;4.75;;
29422;SDS011;16399;51.686;8.684;2022-07-23T11:29:53;6.87;;;4.60;;
29422;SDS011;16399;51.686;8.684;2022-07-23T11:36:10;5.40;;;3.55;;
29422;SDS011;16399;51.686;8.684;2022-07-23T11:39:12;9.38;;;3.10;;
29422;SDS011;16399;51.686;8.684;2022-07-23T11:42:16;6.62;;;3.90;;
29422;SDS011;16399;51.686;8.684;2022-07-23T11:45:19;6.45;;;3.00;;
29422;SDS011;16399;51.686;8.684;2022-07-23T11:48:24;5.08;;;3.02;;
29422;SDS011;16399;51.686;8.684;2022-07-23T11:51:30;4.75;;;3.05;;
29422;SDS011;16399;51.686;8.684;2022-07-23T11:54:34;5.90;;;3.05;;
29422;SDS011;16399;51.686;8.684;2022-07-23T11:57:39;7.42;;;3.00;;
29422;SDS011;16399;51.686;8.684;2022-07-23T12:00:42;5.22;;;2.80;;
29422;SDS011;16399;51.686;8.684;2022-07-23T12:03:48;6.65;;;3.12;;
29422;SDS011;16399;51.686;8.684;2022-07-23T12:06:52;7.80;;;3.20;;
29422;SDS011;16399;51.686;8.684;2022-07-23T12:09:55;6.83;;;3.05;;
29422;SDS011;16399;51.686;8.684;2022-07-23T12:12:59;5.17;;;3.05;;
29422;SDS011;16399;51.686;8.684;2022-07-23T12:16:03;7.08;;;2.95;;
29422;SDS011;16399;51.686;8.684;2022-07-23T12:19:06;6.80;;;3.10;;
29422;SDS011;16399;51.686;8.684;2022-07-23T12:22:08;3.85;;;2.47;;
29422;SDS011;16399;51.686;8.684;2022-07-23T12:25:12;5.25;;;2.83;;
29422;SDS011;16399;51.686;8.684;2022-07-23T12:28:17;7.40;;;3.10;;
29422;SDS011;16399;51.686;8.684;2022-07-23T12:31:29;5.30;;;2.70;;
29422;SDS011;16399;51.686;8.684;2022-07-23T12:34:32;6.55;;;3.17;;
29422;SDS011;16399;51.686;8.684;2022-07-23T12:37:35;5.58;;;2.77;;
29422;SDS011;16399;51.686;8.684;2022-07-23T12:40:43;5.15;;;2.90;;
29422;SDS011;16399;51.686;8.684;2022-07-23T12:43:47;5.60;;;2.72;;
29422;SDS011;16399;51.686;8.684;2022-07-23T12:46:51;6.37;;;2.55;;
29422;SDS011;16399;51.686;8.684;2022-07-23T12:49:53;6.27;;;2.50;;
29422;SDS011;16399;51.686;8.684;2022-07-23T12:53:07;4.78;;;2.62;;
29422;SDS011;16399;51.686;8.684;2022-07-23T12:56:11;5.13;;;2.13;;
29422;SDS011;16399;51.686;8.684;2022-07-23T12:59:15;5.67;;;2.30;;
29422;SDS011;16399;51.686;8.684;2022-07-23T13:02:19;5.25;;;2.35;;
29422;SDS011;16399;51.686;8.684;2022-07-23T13:05:21;6.00;;;2.62;;
29422;SDS011;16399;51.686;8.684;2022-07-23T13:08:24;4.03;;;2.27;;
29422;SDS011;16399;51.686;8.684;2022-07-23T13:11:29;4.40;;;2.55;;
29422;SDS011;16399;51.686;8.684;2022-07-23T13:14:32;4.75;;;2.60;;
29422;SDS011;16399;51.686;8.684;2022-07-23T13:17:34;5.95;;;1.90;;
29422;SDS011;16399;51.686;8.684;2022-07-23T13:20:36;3.80;;;1.67;;
29422;SDS011;16399;51.686;8.684;2022-07-23T13:23:39;4.58;;;1.80;;
29422;SDS011;16399;51.686;8.684;2022-07-23T13:26:43;5.03;;;2.30;;
29422;SDS011;16399;51.686;8.684;2022-07-23T13:29:47;5.03;;;1.92;;
29422;SDS011;16399;51.686;8.684;2022-07-23T13:32:49;4.97;;;1.90;;
29422;SDS011;16399;51.686;8.684;2022-07-23T13:35:52;3.50;;;2.08;;
29422;SDS011;16399;51.686;8.684;2022-07-23T13:38:54;4.22;;;2.10;;
29422;SDS011;16399;51.686;8.684;2022-07-23T13:41:57;4.00;;;1.80;;
29422;SDS011;16399;51.686;8.684;2022-07-23T13:44:59;4.17;;;1.85;;
29422;SDS011;16399;51.686;8.684;2022-07-23T13:48:01;4.72;;;2.12;;
29422;SDS011;16399;51.686;8.684;2022-07-23T13:51:04;3.40;;;1.70;;
29422;SDS011;16399;51.686;8.684;2022-07-23T13:54:06;4.42;;;1.77;;
29422;SDS011;16399;51.686;8.684;2022-07-23T13:57:09;5.80;;;1.98;;
29422;SDS011;16399;51.686;8.684;2022-07-23T14:00:11;6.47;;;1.87;;
29422;SDS011;16399;51.686;8.684;2022-07-23T14:03:14;3.95;;;1.87;;
29422;SDS011;16399;51.686;8.684;2022-07-23T14:06:17;4.53;;;1.85;;
29422;SDS011;16399;51.686;8.684;2022-07-23T14:09:19;5.08;;;1.77;;
29422;SDS011;16399;51.686;8.684;2022-07-23T14:12:21;4.12;;;1.65;;
29422;SDS011;16399;51.686;8.684;2022-07-23T14:15:24;5.37;;;1.57;;
29422;SDS011;16399;51.686;8.684;2022-07-23T14:18:27;3.12;;;1.57;;
29422;SDS011;16399;51.686;8.684;2022-07-23T14:21:30;3.85;;;1.90;;
29422;SDS011;16399;51.686;8.684;2022-07-23T14:24:32;5.30;;;1.50;;
29422;SDS011;16399;51.686;8.684;2022-07-23T14:27:34;4.05;;;1.62;;
29422;SDS011;16399;51.686;8.684;2022-07-23T14:30:37;6.10;;;1.77;;
29422;SDS011;16399;51.686;8.684;2022-07-23T14:33:40;4.40;;;1.60;;
29422;SDS011;16399;51.686;8.684;2022-07-23T14:36:42;3.22;;;1.70;;
29422;SDS011;16399;51.686;8.684;2022-07-23T14:39:45;2.80;;;1.57;;
29422;SDS011;16399;51.686;8.684;2022-07-23T14:42:48;3.37;;;1.80;;
29422;SDS011;16399;51.686;8.684;2022-07-23T14:45:50;4.17;;;1.87;;
29422;SDS011;16399;51.686;8.684;2022-07-23T14:48:53;4.40;;;1.52;;
29422;SDS011;16399;51.686;8.684;2022-07-23T14:51:55;3.55;;;1.50;;
29422;SDS011;16399;51.686;8.684;2022-07-23T14:54:57;3.45;;;1.65;;
29422;SDS011;16399;51.686;8.684;2022-07-23T14:58:00;3.10;;;1.52;;
29422;SDS011;16399;51.686;8.684;2022-07-23T15:01:02;4.58;;;1.70;;
29422;SDS011;16399;51.686;8.684;2022-07-23T15:04:05;4.25;;;1.30;;
29422;SDS011;16399;51.686;8.684;2022-07-23T15:07:08;3.08;;;1.40;;
29422;SDS011;16399;51.686;8.684;2022-07-23T15:10:10;3.15;;;1.42;;
29422;SDS011;16399;51.686;8.684;2022-07-23T15:13:13;3.80;;;1.50;;
29422;SDS011;16399;51.686;8.684;2022-07-23T15:16:15;3.55;;;1.60;;
29422;SDS011;16399;51.686;8.684;2022-07-23T15:19:17;5.75;;;1.80;;
29422;SDS011;16399;51.686;8.684;2022-07-23T15:22:20;4.25;;;1.60;;
29422;SDS011;16399;51.686;8.684;2022-07-23T15:25:22;3.15;;;1.50;;
29422;SDS011;16399;51.686;8.684;2022-07-23T15:28:25;4.70;;;1.37;;
29422;SDS011;16399;51.686;8.684;2022-07-23T15:31:27;2.55;;;1.30;;
29422;SDS011;16399;51.686;8.684;2022-07-23T15:34:29;4.85;;;1.80;;
29422;SDS011;16399;51.686;8.684;2022-07-23T15:37:32;2.98;;;1.40;;
29422;SDS011;16399;51.686;8.684;2022-07-23T15:40:35;4.00;;;1.47;;
29422;SDS011;16399;51.686;8.684;2022-07-23T15:43:38;4.45;;;1.55;;
29422;SDS011;16399;51.686;8.684;2022-07-23T15:46:40;5.00;;;1.60;;
29422;SDS011;16399;51.686;8.684;2022-07-23T15:49:43;4.20;;;1.60;;
29422;SDS011;16399;51.686;8.684;2022-07-23T15:52:46;4.00;;;1.30;;
29422;SDS011;16399;51.686;8.684;2022-07-23T15:55:49;5.15;;;1.77;;
29422;SDS011;16399;51.686;8.684;2022-07-23T15:58:51;3.90;;;1.40;;
29422;SDS011;16399;51.686;8.684;2022-07-23T16:01:53;3.62;;;1.60;;
29422;SDS011;16399;51.686;8.684;2022-07-23T16:04:56;3.25;;;1.47;;
29422;SDS011;16399;51.686;8.684;2022-07-23T16:07:59;4.12;;;1.72;;
29422;SDS011;16399;51.686;8.684;2022-07-23T16:11:02;3.60;;;1.65;;
29422;SDS011;16399;51.686;8.684;2022-07-23T16:14:05;4.17;;;1.55;;
29422;SDS011;16399;51.686;8.684;2022-07-23T16:17:07;6.28;;;2.12;;
29422;SDS011;16399;51.686;8.684;2022-07-23T16:20:10;3.45;;;1.70;;
29422;SDS011;16399;51.686;8.684;2022-07-23T16:23:13;2.75;;;1.37;;
29422;SDS011;16399;51.686;8.684;2022-07-23T16:26:15;3.77;;;1.40;;
29422;SDS011;16399;51.686;8.684;2022-07-23T16:29:20;3.87;;;1.65;;
29422;SDS011;16399;51.686;8.684;2022-07-23T16:32:22;4.12;;;1.70;;
29422;SDS011;16399;51.686;8.684;2022-07-23T16:35:25;3.83;;;1.50;;
29422;SDS011;16399;51.686;8.684;2022-07-23T16:38:27;3.02;;;1.42;;
29422;SDS011;16399;51.686;8.684;2022-07-23T16:41:29;3.02;;;1.50;;
29422;SDS011;16399;51.686;8.684;2022-07-23T16:44:32;2.92;;;1.40;;
29422;SDS011;16399;51.686;8.684;2022-07-23T16:47:34;4.15;;;1.55;;
29422;SDS011;16399;51.686;8.684;2022-07-23T16:50:37;3.20;;;1.40;;
29422;SDS011;16399;51.686;8.684;2022-07-23T16:53:40;3.77;;;1.50;;
29422;SDS011;16399;51.686;8.684;2022-07-23T16:56:42;4.45;;;1.80;;
29422;SDS011;16399;51.686;8.684;2022-07-23T16:59:44;3.42;;;1.40;;
29422;SDS011;16399;51.686;8.684;2022-07-23T17:02:47;6.00;;;1.65;;
29422;SDS011;16399;51.686;8.684;2022-07-23T17:05:49;4.12;;;1.47;;
29422;SDS011;16399;51.686;8.684;2022-07-23T17:08:51;3.50;;;1.80;;
29422;SDS011;16399;51.686;8.684;2022-07-23T17:11:54;3.85;;;1.40;;
29422;SDS011;16399;51.686;8.684;2022-07-23T17:14:57;4.90;;;1.47;;
29422;SDS011;16399;51.686;8.684;2022-07-23T17:17:59;4.53;;;1.50;;
29422;SDS011;16399;51.686;8.684;2022-07-23T17:21:02;3.95;;;1.60;;
29422;SDS011;16399;51.686;8.684;2022-07-23T17:24:04;2.75;;;1.50;;
29422;SDS011;16399;51.686;8.684;2022-07-23T17:27:07;2.35;;;1.27;;
29422;SDS011;16399;51.686;8.684;2022-07-23T17:30:09;3.08;;;1.40;;
29422;SDS011;16399;51.686;8.684;2022-07-23T17:33:13;4.05;;;1.40;;
29422;SDS011;16399;51.686;8.684;2022-07-23T17:36:15;4.20;;;1.72;;
29422;SDS011;16399;51.686;8.684;2022-07-23T17:39:18;7.15;;;1.60;;
29422;SDS011;16399;51.686;8.684;2022-07-23T17:42:20;3.10;;;1.30;;
29422;SDS011;16399;51.686;8.684;2022-07-23T17:45:23;3.35;;;1.40;;
29422;SDS011;16399;51.686;8.684;2022-07-23T17:48:26;3.30;;;1.62;;
29422;SDS011;16399;51.686;8.684;2022-07-23T17:51:28;3.58;;;1.72;;
29422;SDS011;16399;51.686;8.684;2022-07-23T17:54:31;5.05;;;1.85;;
29422;SDS011;16399;51.686;8.684;2022-07-23T17:57:33;17.45;;;8.25;;
29422;SDS011;16399;51.686;8.684;2022-07-23T18:00:36;11.75;;;7.25;;
29422;SDS011;16399;51.686;8.684;2022-07-23T18:03:39;5.22;;;1.87;;
29422;SDS011;16399;51.686;8.684;2022-07-23T18:06:41;5.28;;;1.67;;
29422;SDS011;16399;51.686;8.684;2022-07-23T18:09:44;4.28;;;1.45;;
29422;SDS011;16399;51.686;8.684;2022-07-23T18:12:48;4.20;;;1.80;;
29422;SDS011;16399;51.686;8.684;2022-07-23T18:15:50;2.85;;;1.45;;
29422;SDS011;16399;51.686;8.684;2022-07-23T18:18:53;3.65;;;1.57;;
29422;SDS011;16399;51.686;8.684;2022-07-23T18:21:55;3.92;;;1.80;;
29422;SDS011;16399;51.686;8.684;2022-07-23T18:24:57;5.75;;;1.80;;
29422;SDS011;16399;51.686;8.684;2022-07-23T18:28:00;3.52;;;1.70;;
29422;SDS011;16399;51.686;8.684;2022-07-23T18:31:02;3.35;;;1.40;;
29422;SDS011;16399;51.686;8.684;2022-07-23T18:34:04;4.53;;;1.75;;
29422;SDS011;16399;51.686;8.684;2022-07-23T18:37:07;5.58;;;1.90;;
29422;SDS011;16399;51.686;8.684;2022-07-23T18:40:10;4.72;;;1.52;;
29422;SDS011;16399;51.686;8.684;2022-07-23T18:43:13;2.15;;;1.40;;